createdAt,value
2022-09-10T00:02:25.947Z,2.50
2022-09-10T00:04:53.063Z,9.40
2022-09-10T00:07:19.851Z,4.70
2022-09-10T00:09:46.610Z,3.05
2022-09-10T00:12:13.584Z,4.73
2022-09-10T00:14:40.370Z,4.27
2022-09-10T00:17:07.529Z,5.10
2022-09-10T00:19:34.269Z,5.43
2022-09-10T00:22:01.130Z,3.10
2022-09-10T00:24:27.970Z,4.70
2022-09-10T00:26:54.743Z,6.27
2022-09-10T00:29:21.551Z,6.73
2022-09-10T00:31:48.812Z,4.07
2022-09-10T00:34:15.558Z,7.77
2022-09-10T00:36:44.017Z,3.63
2022-09-10T00:39:16.473Z,6.77
2022-09-10T00:41:46.034Z,4.93
2022-09-10T00:44:41.821Z,3.23
2022-09-10T00:47:17.261Z,3.67
2022-09-10T00:49:51.587Z,3.37
2022-09-10T00:52:18.966Z,4.00
2022-09-10T00:54:47.395Z,5.57
2022-09-10T00:57:20.335Z,7.33
2022-09-10T00:59:53.582Z,7.70
2022-09-10T01:02:21.658Z,5.27
2022-09-10T01:04:49.004Z,15.97
2022-09-10T01:07:16.382Z,6.60
2022-09-10T01:09:43.728Z,6.90
2022-09-10T01:12:35.686Z,7.20
2022-09-10T01:15:28.141Z,9.67
2022-09-10T01:17:58.217Z,6.33
2022-09-10T01:21:00.592Z,5.87
2022-09-10T01:23:53.009Z,6.23
2022-09-10T01:26:34.434Z,6.63
2022-09-10T01:29:18.173Z,9.73
2022-09-10T01:31:58.519Z,6.50
2022-09-10T01:34:37.098Z,5.70
2022-09-10T01:37:10.017Z,5.40
2022-09-10T01:39:38.832Z,6.50
2022-09-10T01:42:06.727Z,8.27
2022-09-10T01:44:52.787Z,6.90
2022-09-10T01:48:00.011Z,7.17
2022-09-10T01:50:57.163Z,8.60
2022-09-10T01:53:35.578Z,7.60
2022-09-10T01:56:18.093Z,4.00
2022-09-10T01:58:46.471Z,8.63
2022-09-10T02:01:35.937Z,4.33
2022-09-10T02:04:06.638Z,7.10
2022-09-10T02:06:37.443Z,6.70
2022-09-10T02:09:07.318Z,10.60
2022-09-10T02:11:47.394Z,6.67
2022-09-10T02:14:23.022Z,6.67
2022-09-10T02:17:05.611Z,6.20
2022-09-10T02:19:32.838Z,8.13
2022-09-10T02:22:00.287Z,5.93
2022-09-10T02:24:27.258Z,11.33
2022-09-10T02:26:54.718Z,6.37
2022-09-10T02:29:22.118Z,8.40
2022-09-10T02:31:48.923Z,7.83
2022-09-10T02:34:16.690Z,8.97
2022-09-10T02:36:46.902Z,8.53
2022-09-10T02:39:14.446Z,9.13
2022-09-10T02:41:41.538Z,7.03
2022-09-10T02:44:08.850Z,9.67
2022-09-10T02:46:36.926Z,13.13
2022-09-10T02:49:03.815Z,6.73
2022-09-10T02:51:36.956Z,9.53
2022-09-10T02:54:04.470Z,8.90
2022-09-10T02:56:31.810Z,14.00
2022-09-10T02:58:58.683Z,9.30
2022-09-10T03:01:26.842Z,15.80
2022-09-10T03:03:59.938Z,8.37
2022-09-10T03:06:27.307Z,12.43
2022-09-10T03:08:57.739Z,7.13
2022-09-10T03:11:27.400Z,6.80
2022-09-10T03:13:55.233Z,8.50
2022-09-10T03:16:24.229Z,8.10
2022-09-10T03:18:52.293Z,7.50
2022-09-10T03:21:22.462Z,10.63
2022-09-10T03:23:52.667Z,6.90
2022-09-10T03:26:27.413Z,6.50
2022-09-10T03:28:54.860Z,10.60
2022-09-10T03:31:26.118Z,8.33
2022-09-10T03:33:53.069Z,8.87
2022-09-10T03:36:21.020Z,10.57
2022-09-10T03:38:49.351Z,11.10
2022-09-10T03:41:16.124Z,11.07
2022-09-10T03:43:42.930Z,12.17
2022-09-10T03:46:12.185Z,13.50
2022-09-10T03:48:43.679Z,12.77
2022-09-10T03:51:11.071Z,8.90
2022-09-10T03:53:39.034Z,14.33
2022-09-10T03:56:07.325Z,7.63
2022-09-10T03:58:35.830Z,11.43
2022-09-10T04:01:03.450Z,13.13
2022-09-10T04:03:32.592Z,14.00
2022-09-10T04:05:59.377Z,8.43
2022-09-10T04:08:26.218Z,11.57
2022-09-10T04:10:57.086Z,12.90
2022-09-10T04:13:25.093Z,8.97
2022-09-10T04:15:53.312Z,16.00
2022-09-10T04:18:21.155Z,7.77
2022-09-10T04:20:48.600Z,16.13
2022-09-10T04:23:16.251Z,15.57
2022-09-10T04:25:44.013Z,13.73
2022-09-10T04:28:11.650Z,11.03
2022-09-10T04:30:40.322Z,9.70
2022-09-10T04:33:07.835Z,9.43
2022-09-10T04:35:34.905Z,16.50
2022-09-10T04:38:04.576Z,9.90
2022-09-10T04:40:31.686Z,11.90
2022-09-10T04:43:01.254Z,15.70
2022-09-10T04:45:28.928Z,10.97
2022-09-10T04:47:56.598Z,14.03
2022-09-10T04:50:23.446Z,18.80
2022-09-10T04:53:21.613Z,10.93
2022-09-10T04:55:49.776Z,10.87
2022-09-10T04:58:16.574Z,12.47
2022-09-10T05:00:45.392Z,14.03
2022-09-10T05:03:13.531Z,17.60
2022-09-10T05:05:46.081Z,17.10
2022-09-10T05:08:13.229Z,17.50
2022-09-10T05:10:41.810Z,21.37
2022-09-10T05:13:09.110Z,22.23
2022-09-10T05:15:35.851Z,19.43
2022-09-10T05:18:04.717Z,19.07
2022-09-10T05:20:35.756Z,23.27
2022-09-10T05:23:02.826Z,21.30
2022-09-10T05:25:36.318Z,20.00
2022-09-10T05:28:05.646Z,21.40
2022-09-10T05:30:32.962Z,13.43
2022-09-10T05:33:03.654Z,27.80
2022-09-10T05:35:33.326Z,18.70
2022-09-10T05:38:01.127Z,17.80
2022-09-10T05:40:29.981Z,18.40
2022-09-10T05:42:58.203Z,23.10
2022-09-10T05:45:25.805Z,18.87
2022-09-10T05:47:53.051Z,23.20
2022-09-10T05:50:22.815Z,26.47
2022-09-10T05:52:50.317Z,28.93
2022-09-10T05:55:18.220Z,22.20
2022-09-10T05:57:46.754Z,28.40
2022-09-10T06:00:16.731Z,30.90
2022-09-10T06:02:57.370Z,13.37
2022-09-10T06:05:32.332Z,19.53
2022-09-10T06:08:05.396Z,34.97
2022-09-10T06:10:37.324Z,17.33
2022-09-10T06:13:04.292Z,19.37
2022-09-10T06:15:31.066Z,16.27
2022-09-10T06:17:58.486Z,22.83
2022-09-10T06:20:26.795Z,19.73
2022-09-10T06:22:54.802Z,19.37
2022-09-10T06:25:21.570Z,18.83
2022-09-10T06:27:48.325Z,21.70
2022-09-10T06:30:17.587Z,20.23
2022-09-10T06:32:47.278Z,17.03
2022-09-10T06:35:14.546Z,23.87
2022-09-10T06:37:41.357Z,16.00
2022-09-10T06:40:10.270Z,26.23
2022-09-10T06:42:38.019Z,24.27
2022-09-10T06:45:13.613Z,23.90
2022-09-10T06:48:37.249Z,27.33
2022-09-10T06:51:04.225Z,21.23
2022-09-10T06:53:35.525Z,24.43
2022-09-10T06:56:06.122Z,20.57
2022-09-10T06:58:35.312Z,17.40
2022-09-10T07:01:14.834Z,27.47
2022-09-10T07:03:46.334Z,18.57
2022-09-10T07:06:17.324Z,26.53
2022-09-10T07:08:57.844Z,29.87
2022-09-10T07:11:30.393Z,18.07
2022-09-10T07:14:00.186Z,22.80
2022-09-10T07:16:30.906Z,14.10
2022-09-10T07:19:00.196Z,16.57
2022-09-10T07:21:37.796Z,16.10
2022-09-10T07:24:07.440Z,26.77
2022-09-10T07:26:37.959Z,22.77
2022-09-10T07:29:08.014Z,24.00
2022-09-10T07:31:38.429Z,21.83
2022-09-10T07:34:09.928Z,16.80
2022-09-10T07:36:37.486Z,22.63
2022-09-10T07:39:05.090Z,24.97
2022-09-10T07:41:35.541Z,19.70
2022-09-10T07:44:05.256Z,29.10
2022-09-10T07:46:39.890Z,17.20
2022-09-10T07:49:09.531Z,22.43
2022-09-10T07:51:38.320Z,20.90
2022-09-10T07:54:06.509Z,20.00
2022-09-10T07:56:40.182Z,21.50
2022-09-10T07:59:08.822Z,22.57
2022-09-10T08:01:44.643Z,18.10
2022-09-10T08:04:12.843Z,17.43
2022-09-10T08:06:39.722Z,23.93
2022-09-10T08:09:09.853Z,19.17
2022-09-10T08:11:42.301Z,22.20
2022-09-10T08:14:13.346Z,20.10
2022-09-10T08:16:44.554Z,24.97
2022-09-10T08:19:15.977Z,23.97
2022-09-10T08:21:44.538Z,28.57
2022-09-10T08:24:13.285Z,22.07
2022-09-10T08:26:43.094Z,21.23
2022-09-10T08:29:09.837Z,32.63
2022-09-10T08:31:37.040Z,29.37
2022-09-10T08:34:14.304Z,26.10
2022-09-10T08:36:45.251Z,24.67
2022-09-10T08:39:12.893Z,28.97
2022-09-10T08:42:03.741Z,41.90
2022-09-10T08:44:38.455Z,27.10
2022-09-10T08:47:21.185Z,24.77
2022-09-10T08:50:26.538Z,27.60
2022-09-10T08:53:05.480Z,46.30
2022-09-10T08:55:35.702Z,23.90
2022-09-10T08:58:15.126Z,20.47
2022-09-10T09:00:44.682Z,21.50
2022-09-10T09:03:29.996Z,22.63
2022-09-10T09:06:02.366Z,27.30
2022-09-10T09:08:49.130Z,21.53
2022-09-10T09:11:36.193Z,21.67
2022-09-10T09:14:21.070Z,30.30
2022-09-10T09:16:59.882Z,23.87
2022-09-10T09:19:44.646Z,19.00
2022-09-10T09:22:27.359Z,18.17
2022-09-10T09:24:57.883Z,24.50
2022-09-10T09:27:30.218Z,17.40
2022-09-10T09:30:02.738Z,16.00
2022-09-10T09:32:35.718Z,26.30
2022-09-10T09:35:16.719Z,24.50
2022-09-10T09:37:48.250Z,20.00
2022-09-10T09:40:33.959Z,19.80
2022-09-10T09:43:40.908Z,21.20
2022-09-10T09:46:16.758Z,20.40
2022-09-10T09:48:47.765Z,19.27
2022-09-10T09:51:21.097Z,24.30
2022-09-10T09:54:00.986Z,20.27
2022-09-10T09:56:45.711Z,20.70
2022-09-10T09:59:34.374Z,23.20
2022-09-10T10:02:12.728Z,21.43
2022-09-10T10:04:52.549Z,25.70
2022-09-10T10:07:31.663Z,17.00
2022-09-10T10:10:03.760Z,26.50
2022-09-10T10:12:31.935Z,18.50
2022-09-10T10:15:00.405Z,18.13
2022-09-10T10:17:31.211Z,17.13
2022-09-10T10:20:02.446Z,18.13
2022-09-10T10:22:32.883Z,16.17
2022-09-10T10:25:02.022Z,13.93
2022-09-10T10:27:32.848Z,17.47
2022-09-10T10:30:06.142Z,12.87
2022-09-10T10:32:41.608Z,13.23
2022-09-10T10:35:48.093Z,13.40
2022-09-10T10:38:28.918Z,14.17
2022-09-10T10:41:26.533Z,17.87
2022-09-10T10:44:11.366Z,17.60
2022-09-10T10:47:11.974Z,15.97
2022-09-10T10:49:50.819Z,14.43
2022-09-10T10:52:35.236Z,15.80
2022-09-10T10:55:27.886Z,17.20
2022-09-10T10:58:08.768Z,15.07
2022-09-10T11:00:44.250Z,16.07
2022-09-10T11:03:21.297Z,15.63
2022-09-10T11:06:12.974Z,21.80
2022-09-10T11:08:50.790Z,17.93
2022-09-10T11:11:24.637Z,17.47
2022-09-10T11:13:56.776Z,14.33
2022-09-10T11:16:49.113Z,17.93
2022-09-10T11:19:39.006Z,15.87
2022-09-10T11:22:22.835Z,14.47
2022-09-10T11:24:58.890Z,20.33
2022-09-10T11:27:55.308Z,18.23
2022-09-10T11:30:22.385Z,13.97
2022-09-10T11:33:00.377Z,16.00
2022-09-10T11:36:03.718Z,14.00
2022-09-10T11:38:45.747Z,13.10
2022-09-10T11:41:29.875Z,13.60
2022-09-10T11:44:12.645Z,15.60
2022-09-10T11:46:57.695Z,15.33
2022-09-10T11:49:35.757Z,13.67
2022-09-10T11:52:02.948Z,15.67
2022-09-10T11:54:34.509Z,10.90
2022-09-10T11:57:14.506Z,14.80
2022-09-10T12:00:15.763Z,13.00
2022-09-10T12:03:11.890Z,14.30
2022-09-10T12:05:44.561Z,12.10
2022-09-10T12:08:29.603Z,13.00
2022-09-10T12:11:25.079Z,13.07
2022-09-10T12:13:52.660Z,11.70
2022-09-10T12:16:34.312Z,12.30
2022-09-10T12:19:04.386Z,9.47
2022-09-10T12:21:39.510Z,10.37
2022-09-10T12:24:29.707Z,10.07
2022-09-10T12:26:59.317Z,8.93
2022-09-10T12:29:29.661Z,8.67
2022-09-10T12:32:28.630Z,10.00
2022-09-10T12:35:31.223Z,10.53
2022-09-10T12:38:35.827Z,9.17
2022-09-10T12:41:04.810Z,11.43
2022-09-10T12:43:41.054Z,10.70
2022-09-10T12:46:12.613Z,10.97
2022-09-10T12:48:44.941Z,13.10
2022-09-10T12:51:20.314Z,22.27
2022-09-10T12:53:58.324Z,17.77
2022-09-10T12:56:45.854Z,15.00
2022-09-10T12:59:55.399Z,24.40
2022-09-10T13:02:36.166Z,17.17
2022-09-10T13:05:27.381Z,27.27
2022-09-10T13:08:21.360Z,24.60
2022-09-10T13:10:59.704Z,17.37
2022-09-10T13:13:54.633Z,17.50
2022-09-10T13:16:27.316Z,16.90
2022-09-10T13:19:17.472Z,16.97
2022-09-10T13:21:44.169Z,20.77
2022-09-10T13:24:35.759Z,15.63
2022-09-10T13:27:10.260Z,14.37
2022-09-10T13:29:47.181Z,13.90
2022-09-10T13:32:26.314Z,17.00
2022-09-10T13:35:14.939Z,14.63
2022-09-10T13:37:53.665Z,86.93
2022-09-10T13:40:39.212Z,13.67
2022-09-10T13:43:30.486Z,12.57
2022-09-10T13:46:04.614Z,11.93
2022-09-10T13:48:49.338Z,11.47
2022-09-10T13:51:25.310Z,11.00
2022-09-10T13:53:53.434Z,16.13
2022-09-10T13:56:25.103Z,10.77
2022-09-10T13:58:56.748Z,9.67
2022-09-10T14:01:51.182Z,11.53
2022-09-10T14:04:35.428Z,11.03
2022-09-10T14:07:11.589Z,10.90
2022-09-10T14:09:43.007Z,11.10
2022-09-10T14:12:10.592Z,10.87
2022-09-10T14:14:44.708Z,12.37
2022-09-10T14:17:19.617Z,14.13
2022-09-10T14:20:02.924Z,13.37
2022-09-10T14:22:31.848Z,18.17
2022-09-10T14:25:03.260Z,14.43
2022-09-10T14:27:35.907Z,14.50
2022-09-10T14:30:24.422Z,15.93
2022-09-10T14:32:52.200Z,12.50
2022-09-10T14:35:40.062Z,10.23
2022-09-10T14:38:34.292Z,15.50
2022-09-10T14:41:11.141Z,11.30
2022-09-10T14:43:40.423Z,6.93
2022-09-10T14:46:10.109Z,7.03
2022-09-10T14:48:40.889Z,6.03
2022-09-10T14:51:19.715Z,10.53
2022-09-10T14:53:51.518Z,6.53
2022-09-10T14:56:23.538Z,7.40
2022-09-10T14:59:01.714Z,6.40
2022-09-10T15:01:28.793Z,6.43
2022-09-10T15:03:55.987Z,7.27
2022-09-10T15:06:26.428Z,6.07
2022-09-10T15:08:56.208Z,6.10
2022-09-10T15:11:26.130Z,7.77
2022-09-10T15:13:55.952Z,6.77
2022-09-10T15:16:25.676Z,10.57
2022-09-10T15:18:52.625Z,6.43
2022-09-10T15:21:19.988Z,9.53
2022-09-10T15:23:48.232Z,7.83
2022-09-10T15:26:15.782Z,8.50
2022-09-10T15:28:42.781Z,9.63
2022-09-10T15:31:10.494Z,11.03
2022-09-10T15:33:37.364Z,10.43
2022-09-10T15:36:04.387Z,10.70
2022-09-10T15:38:31.491Z,10.73
2022-09-10T15:41:13.019Z,11.20
2022-09-10T15:43:43.115Z,13.40
2022-09-10T15:46:12.158Z,14.60
2022-09-10T15:48:39.358Z,19.50
2022-09-10T15:51:13.773Z,19.23
2022-09-10T15:53:41.079Z,17.80
2022-09-10T15:56:10.037Z,16.83
2022-09-10T15:58:37.752Z,21.83
2022-09-10T16:01:07.562Z,15.13
2022-09-10T16:03:34.660Z,15.77
2022-09-10T16:06:03.548Z,14.03
2022-09-10T16:08:30.903Z,17.53
2022-09-10T16:10:58.234Z,13.43
2022-09-10T16:13:26.081Z,14.53
2022-09-10T16:16:04.221Z,20.53
2022-09-10T16:18:32.595Z,20.40
2022-09-10T16:21:12.083Z,70.73
2022-09-10T16:23:41.205Z,15.60
2022-09-10T16:26:11.065Z,15.17
2022-09-10T16:28:38.079Z,14.63
2022-09-10T16:31:16.504Z,12.60
2022-09-10T16:33:44.011Z,13.07
2022-09-10T16:36:11.347Z,15.70
2022-09-10T16:38:38.930Z,12.13
2022-09-10T16:41:06.806Z,11.83
2022-09-10T16:43:35.698Z,10.90
2022-09-10T16:46:07.242Z,9.53
2022-09-10T16:48:35.263Z,9.80
2022-09-10T16:51:08.040Z,9.23
2022-09-10T16:53:36.660Z,18.30
2022-09-10T16:56:09.131Z,8.20
2022-09-10T16:58:39.929Z,10.00
2022-09-10T17:01:11.306Z,8.87
2022-09-10T17:03:45.467Z,16.13
2022-09-10T17:06:21.750Z,7.80
2022-09-10T17:08:49.043Z,7.37
2022-09-10T17:11:19.144Z,7.23
2022-09-10T17:13:46.549Z,6.20
2022-09-10T17:16:18.251Z,8.50
2022-09-10T17:18:45.188Z,7.50
2022-09-10T17:21:14.367Z,7.40
2022-09-10T17:23:41.827Z,8.23
2022-09-10T17:26:09.415Z,7.93
2022-09-10T17:28:36.989Z,8.33
2022-09-10T17:31:04.985Z,7.80
2022-09-10T17:33:33.637Z,8.10
2022-09-10T17:36:03.522Z,9.03
2022-09-10T17:38:33.381Z,13.37
2022-09-10T17:41:03.290Z,9.50
2022-09-10T17:43:34.644Z,9.43
2022-09-10T17:46:12.774Z,11.20
2022-09-10T17:48:39.678Z,8.97
2022-09-10T17:51:07.450Z,10.90
2022-09-10T17:53:34.977Z,8.97
2022-09-10T17:56:04.053Z,9.63
2022-09-10T17:58:34.663Z,9.40
2022-09-10T18:01:07.977Z,10.07
2022-09-10T18:03:35.654Z,9.43
2022-09-10T18:06:04.862Z,14.80
2022-09-10T18:08:33.066Z,16.47
2022-09-10T18:11:05.850Z,14.23
2022-09-10T18:13:34.278Z,13.50
2022-09-10T18:16:13.162Z,25.13
2022-09-10T18:18:40.006Z,15.20
2022-09-10T18:21:29.406Z,18.20
2022-09-10T18:24:01.099Z,25.63
2022-09-10T18:26:34.598Z,19.13
2022-09-10T18:29:07.789Z,24.77
2022-09-10T18:31:41.749Z,20.40
2022-09-10T18:34:11.877Z,22.03
2022-09-10T18:36:38.660Z,20.67
2022-09-10T18:39:07.081Z,26.30
2022-09-10T18:41:37.855Z,29.30
2022-09-10T18:44:10.910Z,24.60
2022-09-10T18:46:37.723Z,24.67
2022-09-10T18:49:05.279Z,25.23
2022-09-10T18:51:32.163Z,27.47
2022-09-10T18:54:01.102Z,26.63
2022-09-10T18:56:31.211Z,23.40
2022-09-10T18:59:05.425Z,28.97
2022-09-10T19:01:33.346Z,27.93
2022-09-10T19:04:03.111Z,31.27
2022-09-10T19:06:31.731Z,27.80
2022-09-10T19:09:01.392Z,31.37
2022-09-10T19:11:32.975Z,34.47
2022-09-10T19:14:01.766Z,31.13
2022-09-10T19:16:31.035Z,37.13
2022-09-10T19:19:00.156Z,33.03
2022-09-10T19:21:28.807Z,38.93
2022-09-10T19:24:01.573Z,31.03
2022-09-10T19:26:30.716Z,36.20
2022-09-10T19:28:59.115Z,39.70
2022-09-10T19:31:27.847Z,32.67
2022-09-10T19:33:56.522Z,38.63
2022-09-10T19:36:23.813Z,35.57
2022-09-10T19:38:50.787Z,32.33
2022-09-10T19:41:20.985Z,38.40
2022-09-10T19:43:49.854Z,34.17
2022-09-10T19:46:18.632Z,36.00
2022-09-10T19:48:46.941Z,30.93
2022-09-10T19:51:16.294Z,42.97
2022-09-10T19:53:43.451Z,35.57
2022-09-10T19:56:19.741Z,33.43
2022-09-10T19:58:50.668Z,34.00
2022-09-10T20:01:24.426Z,32.80
2022-09-10T20:03:52.177Z,36.27
2022-09-10T20:06:21.524Z,34.20
2022-09-10T20:08:51.433Z,35.90
2022-09-10T20:11:24.485Z,38.80
2022-09-10T20:13:56.752Z,36.23
2022-09-10T20:16:23.786Z,37.40
2022-09-10T20:18:50.594Z,39.73
2022-09-10T20:21:20.385Z,35.77
2022-09-10T20:23:48.935Z,36.80
2022-09-10T20:26:24.009Z,38.37
2022-09-10T20:28:56.778Z,36.10
2022-09-10T20:31:25.239Z,36.67
2022-09-10T20:33:57.662Z,35.10
2022-09-10T20:36:25.931Z,50.20
2022-09-10T20:38:53.679Z,33.83
2022-09-10T20:41:21.143Z,41.20
2022-09-10T20:43:52.894Z,38.87
2022-09-10T20:46:24.623Z,39.20
2022-09-10T20:48:52.315Z,33.87
2022-09-10T20:51:22.859Z,32.67
2022-09-10T20:53:49.760Z,34.40
2022-09-10T20:56:18.960Z,43.63
2022-09-10T20:58:46.908Z,35.87
2022-09-10T21:01:19.453Z,37.57
2022-09-10T21:03:48.205Z,34.23
2022-09-10T21:06:19.324Z,39.97
2022-09-10T21:08:47.698Z,38.47
2022-09-10T21:11:17.129Z,36.00
2022-09-10T21:13:46.974Z,40.40
2022-09-10T21:16:15.073Z,46.23
2022-09-10T21:18:42.847Z,34.60
2022-09-10T21:21:11.843Z,41.20
2022-09-10T21:23:43.083Z,35.97
2022-09-10T21:26:11.186Z,33.93
2022-09-10T21:28:38.866Z,37.23
2022-09-10T21:31:07.391Z,31.80
2022-09-10T21:33:35.279Z,41.43
2022-09-10T21:36:08.159Z,37.23
2022-09-10T21:38:35.163Z,33.90
2022-09-10T21:41:03.744Z,40.70
2022-09-10T21:43:34.797Z,41.17
2022-09-10T21:46:03.205Z,43.83
2022-09-10T21:48:31.680Z,47.93
2022-09-10T21:51:05.814Z,40.07
2022-09-10T21:53:33.968Z,45.37
2022-09-10T21:56:02.394Z,42.10
2022-09-10T21:58:31.255Z,51.80
2022-09-10T22:00:58.697Z,42.37
2022-09-10T22:03:28.910Z,50.73
2022-09-10T22:06:17.115Z,47.43
2022-09-10T22:08:46.191Z,45.17
2022-09-10T22:11:23.386Z,43.63
2022-09-10T22:13:52.920Z,48.63
2022-09-10T22:16:20.838Z,43.80
2022-09-10T22:18:47.769Z,41.07
2022-09-10T22:21:15.174Z,39.40
2022-09-10T22:23:42.260Z,41.90
2022-09-10T22:26:14.586Z,53.90
2022-09-10T22:28:42.025Z,44.20
2022-09-10T22:31:10.530Z,51.20
2022-09-10T22:33:39.020Z,47.60
2022-09-10T22:36:20.659Z,48.03
2022-09-10T22:38:59.370Z,50.40
2022-09-10T22:41:27.176Z,50.43
2022-09-10T22:43:54.475Z,52.70
2022-09-10T22:46:21.604Z,50.63
2022-09-10T22:48:48.427Z,61.50
2022-09-10T22:51:20.554Z,54.47
2022-09-10T22:53:48.150Z,61.03
2022-09-10T22:56:17.690Z,54.00
2022-09-10T22:58:45.946Z,54.97
2022-09-10T23:01:16.259Z,56.50
2022-09-10T23:03:44.191Z,59.70
2022-09-10T23:06:16.967Z,62.03
2022-09-10T23:17:55.729Z,53.57
2022-09-10T23:20:23.938Z,52.37
2022-09-10T23:22:50.871Z,54.60
2022-09-10T23:25:18.565Z,52.57
2022-09-10T23:27:45.756Z,52.33
2022-09-10T23:30:16.057Z,61.93
2022-09-10T23:32:43.854Z,58.23
2022-09-10T23:35:10.651Z,56.90
2022-09-10T23:37:38.314Z,60.97
2022-09-10T23:40:06.056Z,56.20
2022-09-10T23:42:33.305Z,59.90
2022-09-10T23:45:00.071Z,57.07
2022-09-10T23:47:27.056Z,57.53
2022-09-10T23:49:53.894Z,66.43
2022-09-10T23:52:20.671Z,74.20
2022-09-10T23:54:47.480Z,74.53
2022-09-10T23:57:14.319Z,68.07
2022-09-10T23:59:41.093Z,75.47
